KAFN

Jaffrey-Silver Ranch Airport

Jaffrey, New Hampshire, USA
METAR KAFN 212252Z AUTO VRB03KT 10SM CLR 26/03 A2984 RMK AO2 SLP103 T02560033
Observed Flight Rules
Jun-21 @ 22:52 UTC (an hour ago) Visual Flight Rules
Wind Visibility Clouds
Variable at 3 knots 10 miles
  • Clear skies
Temperatures Readings
Current 26°C / 79°F
Dewpoint 3°C / 37°F
Humidity 23%
Altimeter 29.84" Hg
Pressure 1010.3 hPa
Elevation 313
METAR KAFN 212252Z AUTO VRB03KT 10SM CLR 26/03 A2984 RMK AO2 SLP103 T02560033
Observed Flight Rules
Jun-21 @ 22:52 UTC
(an hour ago)
VFR
Wind Visibility
Variable at 3 knots 10 miles
Clouds
  • Clear skies
Temperature Dewpoint
26°C / 79°F 3°C / 37°F
Humidity Altimeter Pressure
23% 29.84" Hg 1010.3 hPa